sensor_id;sensor_type;location;lat;lon;timestamp;P1;durP1;ratioP1;P2;durP2;ratioP2
76788;SDS011;65740;52.464;13.446;2023-04-03T00:00:32;2.03;;;1.93;;
76788;SDS011;65740;52.464;13.446;2023-04-03T00:02:58;1.90;;;1.80;;
76788;SDS011;65740;52.464;13.446;2023-04-03T00:05:23;2.37;;;2.17;;
76788;SDS011;65740;52.464;13.446;2023-04-03T00:07:49;2.47;;;2.10;;
76788;SDS011;65740;52.464;13.446;2023-04-03T00:10:15;2.37;;;2.27;;
76788;SDS011;65740;52.464;13.446;2023-04-03T00:12:41;1.90;;;1.80;;
76788;SDS011;65740;52.464;13.446;2023-04-03T00:15:06;2.00;;;1.90;;
76788;SDS011;65740;52.464;13.446;2023-04-03T00:17:32;2.30;;;2.10;;
76788;SDS011;65740;52.464;13.446;2023-04-03T00:20:00;2.20;;;2.10;;
76788;SDS011;65740;52.464;13.446;2023-04-03T00:22:25;2.50;;;2.30;;
76788;SDS011;65740;52.464;13.446;2023-04-03T00:24:53;2.20;;;2.10;;
76788;SDS011;65740;52.464;13.446;2023-04-03T00:27:19;2.50;;;2.30;;
76788;SDS011;65740;52.464;13.446;2023-04-03T00:29:45;2.60;;;2.40;;
76788;SDS011;65740;52.464;13.446;2023-04-03T00:32:10;2.47;;;2.30;;
76788;SDS011;65740;52.464;13.446;2023-04-03T00:34:36;2.40;;;2.20;;
76788;SDS011;65740;52.464;13.446;2023-04-03T00:37:01;2.23;;;2.00;;
76788;SDS011;65740;52.464;13.446;2023-04-03T00:39:27;1.87;;;1.77;;
76788;SDS011;65740;52.464;13.446;2023-04-03T00:41:53;2.10;;;1.90;;
76788;SDS011;65740;52.464;13.446;2023-04-03T00:44:23;2.40;;;2.20;;
76788;SDS011;65740;52.464;13.446;2023-04-03T00:47:08;2.20;;;2.10;;
76788;SDS011;65740;52.464;13.446;2023-04-03T00:49:37;2.40;;;2.20;;
76788;SDS011;65740;52.464;13.446;2023-04-03T00:52:04;2.50;;;2.30;;
76788;SDS011;65740;52.464;13.446;2023-04-03T00:54:32;1.93;;;1.83;;
76788;SDS011;65740;52.464;13.446;2023-04-03T00:57:01;2.40;;;2.07;;
76788;SDS011;65740;52.464;13.446;2023-04-03T00:59:30;2.23;;;2.03;;
76788;SDS011;65740;52.464;13.446;2023-04-03T01:01:58;2.40;;;2.20;;
76788;SDS011;65740;52.464;13.446;2023-04-03T01:04:32;2.57;;;2.40;;
76788;SDS011;65740;52.464;13.446;2023-04-03T01:09:43;2.30;;;2.10;;
76788;SDS011;65740;52.464;13.446;2023-04-03T01:12:18;2.20;;;2.00;;
76788;SDS011;65740;52.464;13.446;2023-04-03T01:14:48;2.10;;;1.90;;
76788;SDS011;65740;52.464;13.446;2023-04-03T01:17:29;1.93;;;1.80;;
76788;SDS011;65740;52.464;13.446;2023-04-03T01:25:26;2.10;;;2.00;;
76788;SDS011;65740;52.464;13.446;2023-04-03T01:27:52;1.80;;;1.70;;
76788;SDS011;65740;52.464;13.446;2023-04-03T01:30:19;2.37;;;2.17;;
76788;SDS011;65740;52.464;13.446;2023-04-03T01:32:46;2.07;;;1.97;;
76788;SDS011;65740;52.464;13.446;2023-04-03T01:35:12;3.90;;;2.20;;
76788;SDS011;65740;52.464;13.446;2023-04-03T01:37:38;2.10;;;2.00;;
76788;SDS011;65740;52.464;13.446;2023-04-03T01:40:03;2.20;;;2.10;;
76788;SDS011;65740;52.464;13.446;2023-04-03T01:42:30;2.20;;;2.00;;
76788;SDS011;65740;52.464;13.446;2023-04-03T01:44:56;2.33;;;2.13;;
76788;SDS011;65740;52.464;13.446;2023-04-03T01:47:21;2.30;;;2.10;;
76788;SDS011;65740;52.464;13.446;2023-04-03T01:49:47;2.40;;;2.20;;
76788;SDS011;65740;52.464;13.446;2023-04-03T01:52:13;1.97;;;1.87;;
76788;SDS011;65740;52.464;13.446;2023-04-03T01:54:39;3.13;;;2.00;;
76788;SDS011;65740;52.464;13.446;2023-04-03T01:57:04;2.47;;;1.90;;
76788;SDS011;65740;52.464;13.446;2023-04-03T01:59:30;2.10;;;1.90;;
76788;SDS011;65740;52.464;13.446;2023-04-03T02:01:56;1.90;;;1.80;;
76788;SDS011;65740;52.464;13.446;2023-04-03T02:04:21;2.13;;;1.90;;
76788;SDS011;65740;52.464;13.446;2023-04-03T02:06:47;2.13;;;2.00;;
76788;SDS011;65740;52.464;13.446;2023-04-03T02:09:13;3.73;;;2.10;;
76788;SDS011;65740;52.464;13.446;2023-04-03T02:11:38;2.40;;;2.20;;
76788;SDS011;65740;52.464;13.446;2023-04-03T02:14:04;2.30;;;2.20;;
76788;SDS011;65740;52.464;13.446;2023-04-03T02:16:30;2.40;;;2.07;;
76788;SDS011;65740;52.464;13.446;2023-04-03T02:18:55;2.17;;;2.07;;
76788;SDS011;65740;52.464;13.446;2023-04-03T02:21:21;2.30;;;2.10;;
76788;SDS011;65740;52.464;13.446;2023-04-03T02:23:47;2.53;;;2.10;;
76788;SDS011;65740;52.464;13.446;2023-04-03T02:26:14;1.90;;;1.80;;
76788;SDS011;65740;52.464;13.446;2023-04-03T02:28:41;2.27;;;2.07;;
76788;SDS011;65740;52.464;13.446;2023-04-03T02:31:07;2.27;;;2.10;;
76788;SDS011;65740;52.464;13.446;2023-04-03T02:33:33;2.10;;;2.00;;
76788;SDS011;65740;52.464;13.446;2023-04-03T02:36:01;2.10;;;2.00;;
76788;SDS011;65740;52.464;13.446;2023-04-03T02:38:28;3.13;;;2.40;;
76788;SDS011;65740;52.464;13.446;2023-04-03T02:40:59;2.23;;;2.03;;
76788;SDS011;65740;52.464;13.446;2023-04-03T02:43:26;2.00;;;1.90;;
76788;SDS011;65740;52.464;13.446;2023-04-03T02:45:52;2.40;;;2.20;;
76788;SDS011;65740;52.464;13.446;2023-04-03T02:48:17;1.87;;;1.77;;
76788;SDS011;65740;52.464;13.446;2023-04-03T02:50:43;2.20;;;2.10;;
76788;SDS011;65740;52.464;13.446;2023-04-03T02:53:08;2.30;;;2.13;;
76788;SDS011;65740;52.464;13.446;2023-04-03T02:55:34;2.00;;;1.90;;
76788;SDS011;65740;52.464;13.446;2023-04-03T02:58:00;2.00;;;1.80;;
76788;SDS011;65740;52.464;13.446;2023-04-03T03:00:25;2.20;;;2.00;;
76788;SDS011;65740;52.464;13.446;2023-04-03T03:02:51;2.43;;;2.13;;
76788;SDS011;65740;52.464;13.446;2023-04-03T03:05:17;2.00;;;1.90;;
76788;SDS011;65740;52.464;13.446;2023-04-03T03:07:42;1.93;;;1.83;;
76788;SDS011;65740;52.464;13.446;2023-04-03T03:10:08;2.20;;;2.10;;
76788;SDS011;65740;52.464;13.446;2023-04-03T03:12:34;2.00;;;1.83;;
76788;SDS011;65740;52.464;13.446;2023-04-03T03:14:59;2.40;;;2.20;;
76788;SDS011;65740;52.464;13.446;2023-04-03T03:17:25;2.20;;;2.00;;
76788;SDS011;65740;52.464;13.446;2023-04-03T03:19:51;1.83;;;1.73;;
76788;SDS011;65740;52.464;13.446;2023-04-03T03:22:16;1.90;;;1.80;;
76788;SDS011;65740;52.464;13.446;2023-04-03T03:24:42;2.23;;;2.03;;
76788;SDS011;65740;52.464;13.446;2023-04-03T03:27:08;2.20;;;2.10;;
76788;SDS011;65740;52.464;13.446;2023-04-03T03:29:33;2.03;;;1.93;;
76788;SDS011;65740;52.464;13.446;2023-04-03T03:31:59;2.20;;;2.00;;
76788;SDS011;65740;52.464;13.446;2023-04-03T03:34:24;2.23;;;2.10;;
76788;SDS011;65740;52.464;13.446;2023-04-03T03:36:50;2.50;;;2.40;;
76788;SDS011;65740;52.464;13.446;2023-04-03T03:39:15;2.00;;;1.90;;
76788;SDS011;65740;52.464;13.446;2023-04-03T03:41:41;2.20;;;2.00;;
76788;SDS011;65740;52.464;13.446;2023-04-03T03:44:07;2.50;;;2.30;;
76788;SDS011;65740;52.464;13.446;2023-04-03T03:46:33;2.50;;;2.30;;
76788;SDS011;65740;52.464;13.446;2023-04-03T03:48:58;2.10;;;2.00;;
76788;SDS011;65740;52.464;13.446;2023-04-03T03:51:24;2.43;;;2.23;;
76788;SDS011;65740;52.464;13.446;2023-04-03T03:53:50;2.87;;;2.57;;
76788;SDS011;65740;52.464;13.446;2023-04-03T03:56:15;2.40;;;2.20;;
76788;SDS011;65740;52.464;13.446;2023-04-03T03:58:41;2.60;;;2.40;;
76788;SDS011;65740;52.464;13.446;2023-04-03T04:01:07;2.17;;;2.07;;
76788;SDS011;65740;52.464;13.446;2023-04-03T04:03:32;2.00;;;1.90;;
76788;SDS011;65740;52.464;13.446;2023-04-03T04:05:58;2.37;;;2.13;;
76788;SDS011;65740;52.464;13.446;2023-04-03T04:08:24;2.20;;;2.03;;
76788;SDS011;65740;52.464;13.446;2023-04-03T04:10:50;2.27;;;2.07;;
76788;SDS011;65740;52.464;13.446;2023-04-03T04:13:15;2.63;;;2.20;;
76788;SDS011;65740;52.464;13.446;2023-04-03T04:15:42;2.17;;;2.00;;
76788;SDS011;65740;52.464;13.446;2023-04-03T04:18:07;2.60;;;2.13;;
76788;SDS011;65740;52.464;13.446;2023-04-03T04:20:33;2.40;;;2.20;;
76788;SDS011;65740;52.464;13.446;2023-04-03T04:22:59;2.37;;;2.10;;
76788;SDS011;65740;52.464;13.446;2023-04-03T04:25:25;2.43;;;2.30;;
76788;SDS011;65740;52.464;13.446;2023-04-03T04:27:51;2.17;;;2.00;;
76788;SDS011;65740;52.464;13.446;2023-04-03T04:30:16;2.30;;;2.10;;
76788;SDS011;65740;52.464;13.446;2023-04-03T04:32:42;3.00;;;2.40;;
76788;SDS011;65740;52.464;13.446;2023-04-03T04:35:08;2.37;;;2.17;;
76788;SDS011;65740;52.464;13.446;2023-04-03T04:37:34;2.30;;;2.20;;
76788;SDS011;65740;52.464;13.446;2023-04-03T04:40:00;2.20;;;2.00;;
76788;SDS011;65740;52.464;13.446;2023-04-03T04:42:25;2.10;;;2.00;;
76788;SDS011;65740;52.464;13.446;2023-04-03T04:44:51;1.97;;;1.87;;
76788;SDS011;65740;52.464;13.446;2023-04-03T04:47:17;2.30;;;2.20;;
76788;SDS011;65740;52.464;13.446;2023-04-03T04:49:42;2.10;;;2.00;;
76788;SDS011;65740;52.464;13.446;2023-04-03T04:52:08;1.87;;;1.77;;
76788;SDS011;65740;52.464;13.446;2023-04-03T04:54:34;2.37;;;2.17;;
76788;SDS011;65740;52.464;13.446;2023-04-03T04:57:00;2.70;;;2.23;;
76788;SDS011;65740;52.464;13.446;2023-04-03T04:59:25;2.50;;;2.40;;
76788;SDS011;65740;52.464;13.446;2023-04-03T05:01:51;2.23;;;2.13;;
76788;SDS011;65740;52.464;13.446;2023-04-03T05:04:16;2.53;;;2.33;;
76788;SDS011;65740;52.464;13.446;2023-04-03T05:06:42;2.50;;;2.30;;
76788;SDS011;65740;52.464;13.446;2023-04-03T05:09:08;2.40;;;2.30;;
76788;SDS011;65740;52.464;13.446;2023-04-03T05:11:34;2.10;;;2.00;;
76788;SDS011;65740;52.464;13.446;2023-04-03T05:14:01;2.50;;;2.30;;
76788;SDS011;65740;52.464;13.446;2023-04-03T05:16:26;2.43;;;2.33;;
76788;SDS011;65740;52.464;13.446;2023-04-03T05:18:52;2.20;;;2.10;;
76788;SDS011;65740;52.464;13.446;2023-04-03T05:21:17;2.77;;;2.57;;
76788;SDS011;65740;52.464;13.446;2023-04-03T05:23:43;2.43;;;2.27;;
76788;SDS011;65740;52.464;13.446;2023-04-03T05:26:09;2.13;;;2.03;;
76788;SDS011;65740;52.464;13.446;2023-04-03T05:28:35;2.33;;;2.13;;
76788;SDS011;65740;52.464;13.446;2023-04-03T05:31:01;2.30;;;2.10;;
76788;SDS011;65740;52.464;13.446;2023-04-03T05:33:27;2.50;;;2.30;;
76788;SDS011;65740;52.464;13.446;2023-04-03T05:35:53;2.40;;;2.20;;
76788;SDS011;65740;52.464;13.446;2023-04-03T05:38:19;2.40;;;2.20;;
76788;SDS011;65740;52.464;13.446;2023-04-03T05:40:45;2.30;;;2.20;;
76788;SDS011;65740;52.464;13.446;2023-04-03T05:43:11;2.00;;;1.90;;
76788;SDS011;65740;52.464;13.446;2023-04-03T05:45:37;2.77;;;2.23;;
76788;SDS011;65740;52.464;13.446;2023-04-03T05:48:03;2.37;;;2.27;;
76788;SDS011;65740;52.464;13.446;2023-04-03T05:50:28;1.90;;;1.80;;
76788;SDS011;65740;52.464;13.446;2023-04-03T05:52:55;2.30;;;1.97;;
76788;SDS011;65740;52.464;13.446;2023-04-03T05:55:23;2.30;;;2.20;;
76788;SDS011;65740;52.464;13.446;2023-04-03T05:57:49;2.57;;;2.37;;
76788;SDS011;65740;52.464;13.446;2023-04-03T06:00:15;2.60;;;2.40;;
76788;SDS011;65740;52.464;13.446;2023-04-03T06:02:41;2.20;;;2.10;;
76788;SDS011;65740;52.464;13.446;2023-04-03T06:05:07;2.30;;;2.10;;
76788;SDS011;65740;52.464;13.446;2023-04-03T06:07:34;2.10;;;2.00;;
76788;SDS011;65740;52.464;13.446;2023-04-03T06:10:00;2.23;;;2.13;;
76788;SDS011;65740;52.464;13.446;2023-04-03T06:12:26;2.23;;;2.13;;
76788;SDS011;65740;52.464;13.446;2023-04-03T06:14:54;3.23;;;2.70;;
76788;SDS011;65740;52.464;13.446;2023-04-03T06:17:20;2.53;;;2.33;;
76788;SDS011;65740;52.464;13.446;2023-04-03T06:19:46;2.40;;;2.20;;
76788;SDS011;65740;52.464;13.446;2023-04-03T06:22:12;2.50;;;2.30;;
76788;SDS011;65740;52.464;13.446;2023-04-03T06:24:38;2.30;;;2.20;;
76788;SDS011;65740;52.464;13.446;2023-04-03T06:27:04;2.67;;;2.47;;
76788;SDS011;65740;52.464;13.446;2023-04-03T06:29:30;2.20;;;2.10;;
76788;SDS011;65740;52.464;13.446;2023-04-03T06:31:56;2.40;;;2.20;;
76788;SDS011;65740;52.464;13.446;2023-04-03T06:34:21;2.00;;;1.90;;
76788;SDS011;65740;52.464;13.446;2023-04-03T06:36:47;2.03;;;1.93;;
76788;SDS011;65740;52.464;13.446;2023-04-03T06:39:17;2.47;;;2.33;;
76788;SDS011;65740;52.464;13.446;2023-04-03T06:41:48;2.30;;;2.20;;
76788;SDS011;65740;52.464;13.446;2023-04-03T06:44:14;2.30;;;2.20;;
76788;SDS011;65740;52.464;13.446;2023-04-03T06:46:41;2.40;;;2.30;;
76788;SDS011;65740;52.464;13.446;2023-04-03T06:49:07;2.50;;;2.30;;
76788;SDS011;65740;52.464;13.446;2023-04-03T06:51:33;2.43;;;2.33;;
76788;SDS011;65740;52.464;13.446;2023-04-03T06:54:00;2.40;;;2.20;;
76788;SDS011;65740;52.464;13.446;2023-04-03T06:56:26;2.73;;;2.53;;
76788;SDS011;65740;52.464;13.446;2023-04-03T06:58:53;2.30;;;2.20;;
76788;SDS011;65740;52.464;13.446;2023-04-03T07:01:22;2.07;;;1.90;;
76788;SDS011;65740;52.464;13.446;2023-04-03T07:03:51;2.80;;;2.60;;
76788;SDS011;65740;52.464;13.446;2023-04-03T07:06:17;2.30;;;2.20;;
76788;SDS011;65740;52.464;13.446;2023-04-03T07:08:44;2.87;;;2.67;;
76788;SDS011;65740;52.464;13.446;2023-04-03T07:11:11;2.80;;;2.40;;
76788;SDS011;65740;52.464;13.446;2023-04-03T07:13:37;2.50;;;2.30;;
76788;SDS011;65740;52.464;13.446;2023-04-03T07:16:03;2.90;;;2.60;;
76788;SDS011;65740;52.464;13.446;2023-04-03T07:18:30;2.53;;;2.33;;
76788;SDS011;65740;52.464;13.446;2023-04-03T07:20:56;2.63;;;2.43;;
76788;SDS011;65740;52.464;13.446;2023-04-03T07:23:22;2.50;;;2.30;;
76788;SDS011;65740;52.464;13.446;2023-04-03T07:25:49;2.57;;;2.37;;
76788;SDS011;65740;52.464;13.446;2023-04-03T07:28:16;2.43;;;2.33;;
76788;SDS011;65740;52.464;13.446;2023-04-03T07:30:46;2.53;;;2.33;;
76788;SDS011;65740;52.464;13.446;2023-04-03T07:33:13;2.80;;;2.50;;
76788;SDS011;65740;52.464;13.446;2023-04-03T07:35:40;2.60;;;2.40;;
76788;SDS011;65740;52.464;13.446;2023-04-03T07:38:06;2.20;;;2.10;;
76788;SDS011;65740;52.464;13.446;2023-04-03T07:40:32;2.67;;;2.47;;
76788;SDS011;65740;52.464;13.446;2023-04-03T07:42:58;2.83;;;2.63;;
76788;SDS011;65740;52.464;13.446;2023-04-03T07:45:24;2.20;;;2.10;;
76788;SDS011;65740;52.464;13.446;2023-04-03T07:47:50;2.57;;;2.40;;
76788;SDS011;65740;52.464;13.446;2023-04-03T07:50:17;2.58;;;2.38;;
76788;SDS011;65740;52.464;13.446;2023-04-03T07:52:43;4.33;;;2.27;;
76788;SDS011;65740;52.464;13.446;2023-04-03T07:55:09;2.70;;;2.57;;
76788;SDS011;65740;52.464;13.446;2023-04-03T07:57:35;2.60;;;2.40;;
76788;SDS011;65740;52.464;13.446;2023-04-03T08:00:01;2.43;;;2.23;;
76788;SDS011;65740;52.464;13.446;2023-04-03T08:02:28;2.63;;;2.27;;
76788;SDS011;65740;52.464;13.446;2023-04-03T08:04:53;3.13;;;2.83;;
76788;SDS011;65740;52.464;13.446;2023-04-03T08:07:20;2.57;;;2.37;;
76788;SDS011;65740;52.464;13.446;2023-04-03T08:09:45;2.80;;;2.60;;
76788;SDS011;65740;52.464;13.446;2023-04-03T08:12:11;2.47;;;2.37;;
76788;SDS011;65740;52.464;13.446;2023-04-03T08:14:37;2.43;;;2.33;;
76788;SDS011;65740;52.464;13.446;2023-04-03T08:17:02;2.57;;;2.37;;
76788;SDS011;65740;52.464;13.446;2023-04-03T08:19:30;2.23;;;2.13;;
76788;SDS011;65740;52.464;13.446;2023-04-03T08:21:56;2.50;;;2.30;;
76788;SDS011;65740;52.464;13.446;2023-04-03T08:24:23;5.13;;;2.37;;
76788;SDS011;65740;52.464;13.446;2023-04-03T08:26:49;3.37;;;3.07;;
76788;SDS011;65740;52.464;13.446;2023-04-03T08:29:15;2.27;;;2.17;;
76788;SDS011;65740;52.464;13.446;2023-04-03T08:31:41;3.60;;;2.90;;
76788;SDS011;65740;52.464;13.446;2023-04-03T08:34:06;3.80;;;2.63;;
76788;SDS011;65740;52.464;13.446;2023-04-03T08:36:33;3.00;;;2.80;;
76788;SDS011;65740;52.464;13.446;2023-04-03T08:38:59;3.03;;;2.47;;
76788;SDS011;65740;52.464;13.446;2023-04-03T08:43:58;2.77;;;2.57;;
76788;SDS011;65740;52.464;13.446;2023-04-03T08:46:42;2.60;;;2.40;;
76788;SDS011;65740;52.464;13.446;2023-04-03T08:49:21;4.53;;;2.50;;
76788;SDS011;65740;52.464;13.446;2023-04-03T08:51:51;2.53;;;2.33;;
76788;SDS011;65740;52.464;13.446;2023-04-03T08:54:24;2.73;;;2.53;;
76788;SDS011;65740;52.464;13.446;2023-04-03T08:56:55;2.60;;;2.40;;
76788;SDS011;65740;52.464;13.446;2023-04-03T08:59:29;2.30;;;2.10;;
76788;SDS011;65740;52.464;13.446;2023-04-03T09:01:59;2.70;;;2.50;;
76788;SDS011;65740;52.464;13.446;2023-04-03T09:04:30;2.60;;;2.50;;
76788;SDS011;65740;52.464;13.446;2023-04-03T09:07:02;2.20;;;2.10;;
76788;SDS011;65740;52.464;13.446;2023-04-03T09:09:39;2.50;;;2.40;;
76788;SDS011;65740;52.464;13.446;2023-04-03T09:15:21;3.70;;;3.20;;
76788;SDS011;65740;52.464;13.446;2023-04-03T09:17:53;3.60;;;3.30;;
76788;SDS011;65740;52.464;13.446;2023-04-03T09:23:30;3.20;;;2.90;;
76788;SDS011;65740;52.464;13.446;2023-04-03T09:26:14;3.70;;;2.80;;
76788;SDS011;65740;52.464;13.446;2023-04-03T09:29:07;3.20;;;2.90;;
76788;SDS011;65740;52.464;13.446;2023-04-03T09:31:38;3.07;;;2.87;;
76788;SDS011;65740;52.464;13.446;2023-04-03T09:36:49;2.97;;;2.67;;
76788;SDS011;65740;52.464;13.446;2023-04-03T09:39:20;3.17;;;2.87;;
76788;SDS011;65740;52.464;13.446;2023-04-03T09:41:57;2.53;;;2.33;;
76788;SDS011;65740;52.464;13.446;2023-04-03T09:44:29;4.40;;;2.87;;
76788;SDS011;65740;52.464;13.446;2023-04-03T09:46:57;3.63;;;2.73;;
76788;SDS011;65740;52.464;13.446;2023-04-03T09:49:24;2.97;;;2.77;;
76788;SDS011;65740;52.464;13.446;2023-04-03T09:51:50;2.63;;;2.37;;
76788;SDS011;65740;52.464;13.446;2023-04-03T09:54:36;3.90;;;2.60;;
76788;SDS011;65740;52.464;13.446;2023-04-03T09:57:13;4.80;;;2.93;;
76788;SDS011;65740;52.464;13.446;2023-04-03T09:59:41;3.53;;;2.30;;
76788;SDS011;65740;52.464;13.446;2023-04-03T10:02:36;5.73;;;2.93;;
76788;SDS011;65740;52.464;13.446;2023-04-03T10:05:05;5.20;;;3.00;;
76788;SDS011;65740;52.464;13.446;2023-04-03T10:08:42;3.70;;;3.07;;
76788;SDS011;65740;52.464;13.446;2023-04-03T10:11:14;5.63;;;2.90;;
76788;SDS011;65740;52.464;13.446;2023-04-03T10:16:20;3.67;;;3.10;;
76788;SDS011;65740;52.464;13.446;2023-04-03T10:19:33;5.13;;;4.00;;
76788;SDS011;65740;52.464;13.446;2023-04-03T10:24:46;3.70;;;3.40;;
76788;SDS011;65740;52.464;13.446;2023-04-03T10:27:43;4.63;;;3.83;;
76788;SDS011;65740;52.464;13.446;2023-04-03T10:33:53;6.13;;;4.10;;
76788;SDS011;65740;52.464;13.446;2023-04-03T10:36:36;4.63;;;3.80;;
76788;SDS011;65740;52.464;13.446;2023-04-03T10:47:45;5.50;;;3.80;;
76788;SDS011;65740;52.464;13.446;2023-04-03T10:53:35;4.40;;;4.00;;
76788;SDS011;65740;52.464;13.446;2023-04-03T10:58:43;3.90;;;3.50;;
76788;SDS011;65740;52.464;13.446;2023-04-03T11:01:31;5.53;;;3.77;;
76788;SDS011;65740;52.464;13.446;2023-04-03T11:04:00;4.03;;;3.30;;
76788;SDS011;65740;52.464;13.446;2023-04-03T11:06:32;4.67;;;3.30;;
76788;SDS011;65740;52.464;13.446;2023-04-03T11:09:26;3.80;;;3.40;;
76788;SDS011;65740;52.464;13.446;2023-04-03T11:12:03;4.13;;;3.73;;
76788;SDS011;65740;52.464;13.446;2023-04-03T11:14:35;6.50;;;4.10;;
76788;SDS011;65740;52.464;13.446;2023-04-03T11:22:43;9.60;;;8.03;;
76788;SDS011;65740;52.464;13.446;2023-04-03T11:27:57;10.83;;;8.60;;
76788;SDS011;65740;52.464;13.446;2023-04-03T11:36:41;8.77;;;7.80;;
76788;SDS011;65740;52.464;13.446;2023-04-03T11:38:47;11.13;;;8.60;;
76788;SDS011;65740;52.464;13.446;2023-04-03T11:41:17;14.40;;;8.40;;
76788;SDS011;65740;52.464;13.446;2023-04-03T11:43:55;11.20;;;8.13;;
76788;SDS011;65740;52.464;13.446;2023-04-03T11:46:51;9.93;;;8.63;;
76788;SDS011;65740;52.464;13.446;2023-04-03T11:55:35;14.50;;;8.23;;
76788;SDS011;65740;52.464;13.446;2023-04-03T12:08:26;8.07;;;7.13;;
76788;SDS011;65740;52.464;13.446;2023-04-03T12:26:48;8.23;;;5.87;;
76788;SDS011;65740;52.464;13.446;2023-04-03T12:29:26;7.23;;;6.20;;
76788;SDS011;65740;52.464;13.446;2023-04-03T12:37:30;5.50;;;4.90;;
76788;SDS011;65740;52.464;13.446;2023-04-03T12:40:31;6.47;;;5.87;;
76788;SDS011;65740;52.464;13.446;2023-04-03T12:46:02;7.53;;;5.40;;
76788;SDS011;65740;52.464;13.446;2023-04-03T12:56:43;5.20;;;4.70;;
76788;SDS011;65740;52.464;13.446;2023-04-03T12:59:16;6.37;;;5.27;;
76788;SDS011;65740;52.464;13.446;2023-04-03T13:01:44;5.30;;;4.80;;
76788;SDS011;65740;52.464;13.446;2023-04-03T13:04:17;5.50;;;4.73;;
76788;SDS011;65740;52.464;13.446;2023-04-03T13:06:43;6.50;;;4.73;;
76788;SDS011;65740;52.464;13.446;2023-04-03T13:09:22;6.70;;;5.00;;
76788;SDS011;65740;52.464;13.446;2023-04-03T13:12:03;7.10;;;4.20;;
76788;SDS011;65740;52.464;13.446;2023-04-03T13:14:39;4.90;;;4.50;;
76788;SDS011;65740;52.464;13.446;2023-04-03T13:19:41;5.97;;;3.70;;
76788;SDS011;65740;52.464;13.446;2023-04-03T13:22:23;5.00;;;4.00;;
76788;SDS011;65740;52.464;13.446;2023-04-03T13:24:52;5.17;;;4.77;;
76788;SDS011;65740;52.464;13.446;2023-04-03T13:27:20;5.37;;;3.97;;
76788;SDS011;65740;52.464;13.446;2023-04-03T13:29:50;4.77;;;4.27;;
76788;SDS011;65740;52.464;13.446;2023-04-03T13:32:22;5.47;;;3.93;;
76788;SDS011;65740;52.464;13.446;2023-04-03T13:34:49;4.13;;;3.83;;
76788;SDS011;65740;52.464;13.446;2023-04-03T13:37:29;6.43;;;3.90;;
76788;SDS011;65740;52.464;13.446;2023-04-03T13:42:37;4.27;;;3.83;;
76788;SDS011;65740;52.464;13.446;2023-04-03T13:47:55;3.87;;;3.37;;
76788;SDS011;65740;52.464;13.446;2023-04-03T13:50:41;4.57;;;4.17;;
76788;SDS011;65740;52.464;13.446;2023-04-03T13:53:20;3.93;;;3.53;;
76788;SDS011;65740;52.464;13.446;2023-04-03T13:55:56;4.03;;;3.70;;
76788;SDS011;65740;52.464;13.446;2023-04-03T13:58:26;4.43;;;3.90;;
76788;SDS011;65740;52.464;13.446;2023-04-03T14:03:47;3.63;;;3.33;;
76788;SDS011;65740;52.464;13.446;2023-04-03T14:06:24;3.70;;;3.40;;
76788;SDS011;65740;52.464;13.446;2023-04-03T14:08:51;4.53;;;3.37;;
76788;SDS011;65740;52.464;13.446;2023-04-03T14:11:18;4.10;;;3.30;;
76788;SDS011;65740;52.464;13.446;2023-04-03T14:13:47;4.13;;;3.53;;
76788;SDS011;65740;52.464;13.446;2023-04-03T14:16:15;3.97;;;3.67;;
76788;SDS011;65740;52.464;13.446;2023-04-03T14:18:45;3.70;;;3.20;;
76788;SDS011;65740;52.464;13.446;2023-04-03T14:21:12;4.17;;;3.77;;
76788;SDS011;65740;52.464;13.446;2023-04-03T14:23:39;4.00;;;3.70;;
76788;SDS011;65740;52.464;13.446;2023-04-03T14:26:10;4.23;;;3.47;;
76788;SDS011;65740;52.464;13.446;2023-04-03T14:28:38;4.30;;;3.43;;
76788;SDS011;65740;52.464;13.446;2023-04-03T14:31:05;3.87;;;3.40;;
76788;SDS011;65740;52.464;13.446;2023-04-03T14:33:32;3.83;;;3.40;;
76788;SDS011;65740;52.464;13.446;2023-04-03T14:36:00;3.33;;;3.00;;
76788;SDS011;65740;52.464;13.446;2023-04-03T14:38:28;4.13;;;3.67;;
76788;SDS011;65740;52.464;13.446;2023-04-03T14:40:56;3.87;;;3.47;;
76788;SDS011;65740;52.464;13.446;2023-04-03T14:43:22;4.13;;;3.47;;
76788;SDS011;65740;52.464;13.446;2023-04-03T14:45:49;3.90;;;3.60;;
76788;SDS011;65740;52.464;13.446;2023-04-03T14:48:20;3.60;;;3.30;;
76788;SDS011;65740;52.464;13.446;2023-04-03T14:50:48;4.00;;;3.60;;
76788;SDS011;65740;52.464;13.446;2023-04-03T14:53:15;3.97;;;3.30;;
76788;SDS011;65740;52.464;13.446;2023-04-03T14:55:42;4.10;;;3.33;;
76788;SDS011;65740;52.464;13.446;2023-04-03T14:58:14;5.87;;;3.80;;
76788;SDS011;65740;52.464;13.446;2023-04-03T15:00:42;4.03;;;3.43;;
76788;SDS011;65740;52.464;13.446;2023-04-03T15:03:12;4.80;;;3.23;;
76788;SDS011;65740;52.464;13.446;2023-04-03T15:05:42;3.47;;;3.17;;
76788;SDS011;65740;52.464;13.446;2023-04-03T15:08:19;3.60;;;3.27;;
76788;SDS011;65740;52.464;13.446;2023-04-03T15:10:48;3.43;;;3.23;;
76788;SDS011;65740;52.464;13.446;2023-04-03T15:13:14;4.07;;;3.67;;
76788;SDS011;65740;52.464;13.446;2023-04-03T15:15:41;3.73;;;3.10;;
76788;SDS011;65740;52.464;13.446;2023-04-03T15:18:09;4.30;;;2.90;;
76788;SDS011;65740;52.464;13.446;2023-04-03T15:20:40;3.27;;;2.97;;
76788;SDS011;65740;52.464;13.446;2023-04-03T15:23:08;5.03;;;3.20;;
76788;SDS011;65740;52.464;13.446;2023-04-03T15:25:35;6.80;;;3.60;;
76788;SDS011;65740;52.464;13.446;2023-04-03T15:28:01;3.40;;;3.10;;
76788;SDS011;65740;52.464;13.446;2023-04-03T15:30:27;4.97;;;3.20;;
76788;SDS011;65740;52.464;13.446;2023-04-03T15:32:52;4.77;;;3.03;;
76788;SDS011;65740;52.464;13.446;2023-04-03T15:35:18;3.97;;;3.33;;
76788;SDS011;65740;52.464;13.446;2023-04-03T15:37:44;3.03;;;2.73;;
76788;SDS011;65740;52.464;13.446;2023-04-03T15:40:10;5.13;;;3.60;;
76788;SDS011;65740;52.464;13.446;2023-04-03T15:42:36;3.93;;;3.10;;
76788;SDS011;65740;52.464;13.446;2023-04-03T15:45:02;5.60;;;3.90;;
76788;SDS011;65740;52.464;13.446;2023-04-03T15:47:28;3.63;;;2.90;;
76788;SDS011;65740;52.464;13.446;2023-04-03T15:49:54;3.60;;;2.90;;
76788;SDS011;65740;52.464;13.446;2023-04-03T15:52:20;3.63;;;3.20;;
76788;SDS011;65740;52.464;13.446;2023-04-03T15:54:45;3.90;;;2.93;;
76788;SDS011;65740;52.464;13.446;2023-04-03T15:57:11;3.30;;;3.00;;
76788;SDS011;65740;52.464;13.446;2023-04-03T15:59:37;3.00;;;2.70;;
76788;SDS011;65740;52.464;13.446;2023-04-03T16:02:04;3.40;;;3.10;;
76788;SDS011;65740;52.464;13.446;2023-04-03T16:04:32;3.30;;;3.00;;
76788;SDS011;65740;52.464;13.446;2023-04-03T16:07:00;3.70;;;3.40;;
76788;SDS011;65740;52.464;13.446;2023-04-03T16:09:27;5.23;;;2.77;;
76788;SDS011;65740;52.464;13.446;2023-04-03T16:11:53;3.87;;;3.10;;
76788;SDS011;65740;52.464;13.446;2023-04-03T16:14:18;4.47;;;3.03;;
76788;SDS011;65740;52.464;13.446;2023-04-03T16:16:44;2.87;;;2.67;;
76788;SDS011;65740;52.464;13.446;2023-04-03T16:19:10;6.70;;;2.80;;
76788;SDS011;65740;52.464;13.446;2023-04-03T16:21:36;5.40;;;3.17;;
76788;SDS011;65740;52.464;13.446;2023-04-03T16:24:01;7.83;;;3.10;;
76788;SDS011;65740;52.464;13.446;2023-04-03T16:26:27;6.87;;;3.80;;
76788;SDS011;65740;52.464;13.446;2023-04-03T16:28:53;9.93;;;3.50;;
76788;SDS011;65740;52.464;13.446;2023-04-03T16:31:19;6.13;;;4.37;;
76788;SDS011;65740;52.464;13.446;2023-04-03T16:33:46;4.37;;;3.60;;
76788;SDS011;65740;52.464;13.446;2023-04-03T16:36:12;3.43;;;3.07;;
76788;SDS011;65740;52.464;13.446;2023-04-03T16:38:38;4.17;;;3.77;;